sensor_id;sensor_type;location;lat;lon;timestamp;P1;durP1;ratioP1;P2;durP2;ratioP2
15202;SDS011;7702;51.046;5.184;2023-08-17T00:01:44;2.60;;;2.40;;
15202;SDS011;7702;51.046;5.184;2023-08-17T00:04:09;3.50;;;2.50;;
15202;SDS011;7702;51.046;5.184;2023-08-17T00:06:35;2.77;;;2.50;;
15202;SDS011;7702;51.046;5.184;2023-08-17T00:09:01;3.17;;;2.37;;
15202;SDS011;7702;51.046;5.184;2023-08-17T00:11:29;2.70;;;2.50;;
15202;SDS011;7702;51.046;5.184;2023-08-17T00:13:55;3.83;;;2.60;;
15202;SDS011;7702;51.046;5.184;2023-08-17T00:16:20;3.43;;;2.50;;
15202;SDS011;7702;51.046;5.184;2023-08-17T00:18:48;2.73;;;2.37;;
15202;SDS011;7702;51.046;5.184;2023-08-17T00:21:14;2.67;;;2.37;;
15202;SDS011;7702;51.046;5.184;2023-08-17T00:23:40;3.13;;;2.20;;
15202;SDS011;7702;51.046;5.184;2023-08-17T00:26:05;2.93;;;2.73;;
15202;SDS011;7702;51.046;5.184;2023-08-17T00:28:31;4.50;;;2.63;;
15202;SDS011;7702;51.046;5.184;2023-08-17T00:30:57;3.40;;;2.03;;
15202;SDS011;7702;51.046;5.184;2023-08-17T00:33:25;3.20;;;2.30;;
15202;SDS011;7702;51.046;5.184;2023-08-17T00:35:50;6.23;;;2.27;;
15202;SDS011;7702;51.046;5.184;2023-08-17T00:38:16;6.93;;;2.50;;
15202;SDS011;7702;51.046;5.184;2023-08-17T00:40:42;3.30;;;2.70;;
15202;SDS011;7702;51.046;5.184;2023-08-17T00:43:08;3.10;;;2.43;;
15202;SDS011;7702;51.046;5.184;2023-08-17T00:45:34;5.07;;;2.60;;
15202;SDS011;7702;51.046;5.184;2023-08-17T00:48:00;2.87;;;2.60;;
15202;SDS011;7702;51.046;5.184;2023-08-17T00:50:27;4.27;;;2.70;;
15202;SDS011;7702;51.046;5.184;2023-08-17T00:52:54;2.50;;;2.30;;
15202;SDS011;7702;51.046;5.184;2023-08-17T00:55:21;2.60;;;2.40;;
15202;SDS011;7702;51.046;5.184;2023-08-17T00:57:47;2.50;;;2.30;;
15202;SDS011;7702;51.046;5.184;2023-08-17T01:00:13;2.97;;;2.67;;
15202;SDS011;7702;51.046;5.184;2023-08-17T01:02:40;3.90;;;2.57;;
15202;SDS011;7702;51.046;5.184;2023-08-17T01:05:06;2.67;;;2.57;;
15202;SDS011;7702;51.046;5.184;2023-08-17T01:07:33;4.73;;;2.90;;
15202;SDS011;7702;51.046;5.184;2023-08-17T01:09:59;3.67;;;2.90;;
15202;SDS011;7702;51.046;5.184;2023-08-17T01:12:30;3.87;;;2.60;;
15202;SDS011;7702;51.046;5.184;2023-08-17T01:17:47;2.87;;;2.67;;
15202;SDS011;7702;51.046;5.184;2023-08-17T01:20:19;2.67;;;2.47;;
15202;SDS011;7702;51.046;5.184;2023-08-17T01:22:48;3.43;;;2.30;;
15202;SDS011;7702;51.046;5.184;2023-08-17T01:25:15;3.20;;;2.73;;
15202;SDS011;7702;51.046;5.184;2023-08-17T01:27:41;3.10;;;2.50;;
15202;SDS011;7702;51.046;5.184;2023-08-17T01:30:09;2.73;;;2.53;;
15202;SDS011;7702;51.046;5.184;2023-08-17T01:37:58;4.60;;;2.63;;
15202;SDS011;7702;51.046;5.184;2023-08-17T01:40:26;2.97;;;2.57;;
15202;SDS011;7702;51.046;5.184;2023-08-17T01:42:54;3.30;;;2.70;;
15202;SDS011;7702;51.046;5.184;2023-08-17T01:45:20;3.93;;;2.90;;
15202;SDS011;7702;51.046;5.184;2023-08-17T01:47:47;6.50;;;3.00;;
15202;SDS011;7702;51.046;5.184;2023-08-17T01:50:14;4.53;;;3.00;;
15202;SDS011;7702;51.046;5.184;2023-08-17T01:52:40;3.13;;;2.83;;
15202;SDS011;7702;51.046;5.184;2023-08-17T01:55:06;2.93;;;2.47;;
15202;SDS011;7702;51.046;5.184;2023-08-17T01:57:32;3.70;;;2.67;;
15202;SDS011;7702;51.046;5.184;2023-08-17T01:59:58;5.10;;;2.93;;
15202;SDS011;7702;51.046;5.184;2023-08-17T02:02:25;3.33;;;3.13;;
15202;SDS011;7702;51.046;5.184;2023-08-17T02:04:51;3.07;;;2.77;;
15202;SDS011;7702;51.046;5.184;2023-08-17T02:07:16;3.97;;;2.70;;
15202;SDS011;7702;51.046;5.184;2023-08-17T02:09:42;3.90;;;2.80;;
15202;SDS011;7702;51.046;5.184;2023-08-17T02:12:08;3.17;;;2.70;;
15202;SDS011;7702;51.046;5.184;2023-08-17T02:14:33;2.93;;;2.70;;
15202;SDS011;7702;51.046;5.184;2023-08-17T02:16:59;5.87;;;2.80;;
15202;SDS011;7702;51.046;5.184;2023-08-17T02:19:24;2.90;;;2.70;;
15202;SDS011;7702;51.046;5.184;2023-08-17T02:21:51;3.10;;;2.80;;
15202;SDS011;7702;51.046;5.184;2023-08-17T02:24:16;3.40;;;2.77;;
15202;SDS011;7702;51.046;5.184;2023-08-17T02:26:42;3.20;;;2.80;;
15202;SDS011;7702;51.046;5.184;2023-08-17T02:29:07;3.20;;;2.90;;
15202;SDS011;7702;51.046;5.184;2023-08-17T02:31:33;3.87;;;3.30;;
15202;SDS011;7702;51.046;5.184;2023-08-17T02:33:59;4.43;;;3.10;;
15202;SDS011;7702;51.046;5.184;2023-08-17T02:36:30;3.90;;;3.40;;
15202;SDS011;7702;51.046;5.184;2023-08-17T02:38:56;4.17;;;2.80;;
15202;SDS011;7702;51.046;5.184;2023-08-17T02:41:22;2.87;;;2.77;;
15202;SDS011;7702;51.046;5.184;2023-08-17T02:43:48;5.67;;;2.83;;
15202;SDS011;7702;51.046;5.184;2023-08-17T02:46:13;3.90;;;2.83;;
15202;SDS011;7702;51.046;5.184;2023-08-17T02:48:40;3.83;;;2.90;;
15202;SDS011;7702;51.046;5.184;2023-08-17T02:51:06;4.40;;;3.07;;
15202;SDS011;7702;51.046;5.184;2023-08-17T02:53:32;3.83;;;3.30;;
15202;SDS011;7702;51.046;5.184;2023-08-17T02:55:57;4.53;;;2.90;;
15202;SDS011;7702;51.046;5.184;2023-08-17T02:58:23;3.27;;;2.97;;
15202;SDS011;7702;51.046;5.184;2023-08-17T03:00:50;4.40;;;2.93;;
15202;SDS011;7702;51.046;5.184;2023-08-17T03:03:17;3.10;;;2.80;;
15202;SDS011;7702;51.046;5.184;2023-08-17T03:05:43;5.73;;;3.47;;
15202;SDS011;7702;51.046;5.184;2023-08-17T03:08:08;3.50;;;2.80;;
15202;SDS011;7702;51.046;5.184;2023-08-17T03:10:34;6.07;;;3.70;;
15202;SDS011;7702;51.046;5.184;2023-08-17T03:13:00;4.20;;;3.03;;
15202;SDS011;7702;51.046;5.184;2023-08-17T03:15:26;5.53;;;3.10;;
15202;SDS011;7702;51.046;5.184;2023-08-17T03:17:52;4.27;;;3.10;;
15202;SDS011;7702;51.046;5.184;2023-08-17T03:20:17;7.37;;;3.50;;
15202;SDS011;7702;51.046;5.184;2023-08-17T03:22:43;3.00;;;2.70;;
15202;SDS011;7702;51.046;5.184;2023-08-17T03:25:08;3.80;;;2.73;;
15202;SDS011;7702;51.046;5.184;2023-08-17T03:27:34;3.53;;;2.90;;
15202;SDS011;7702;51.046;5.184;2023-08-17T03:30:00;4.77;;;2.63;;
15202;SDS011;7702;51.046;5.184;2023-08-17T03:32:26;3.40;;;2.80;;
15202;SDS011;7702;51.046;5.184;2023-08-17T03:34:52;3.57;;;3.27;;
15202;SDS011;7702;51.046;5.184;2023-08-17T03:37:17;4.20;;;2.67;;
15202;SDS011;7702;51.046;5.184;2023-08-17T03:39:43;4.93;;;2.83;;
15202;SDS011;7702;51.046;5.184;2023-08-17T03:42:08;3.10;;;2.83;;
15202;SDS011;7702;51.046;5.184;2023-08-17T03:44:34;3.00;;;2.57;;
15202;SDS011;7702;51.046;5.184;2023-08-17T03:47:00;3.27;;;2.80;;
15202;SDS011;7702;51.046;5.184;2023-08-17T03:49:25;5.33;;;2.90;;
15202;SDS011;7702;51.046;5.184;2023-08-17T03:51:51;4.73;;;2.90;;
15202;SDS011;7702;51.046;5.184;2023-08-17T03:54:17;3.83;;;2.93;;
15202;SDS011;7702;51.046;5.184;2023-08-17T03:56:44;4.70;;;2.93;;
15202;SDS011;7702;51.046;5.184;2023-08-17T03:59:10;4.53;;;3.10;;
15202;SDS011;7702;51.046;5.184;2023-08-17T04:01:35;3.73;;;2.43;;
15202;SDS011;7702;51.046;5.184;2023-08-17T04:04:01;2.83;;;2.63;;
15202;SDS011;7702;51.046;5.184;2023-08-17T04:06:27;3.13;;;2.80;;
15202;SDS011;7702;51.046;5.184;2023-08-17T04:08:53;4.60;;;2.93;;
15202;SDS011;7702;51.046;5.184;2023-08-17T04:11:19;4.13;;;2.93;;
15202;SDS011;7702;51.046;5.184;2023-08-17T04:13:44;4.90;;;3.00;;
15202;SDS011;7702;51.046;5.184;2023-08-17T04:16:10;6.80;;;3.27;;
15202;SDS011;7702;51.046;5.184;2023-08-17T04:18:36;3.27;;;2.97;;
15202;SDS011;7702;51.046;5.184;2023-08-17T04:21:01;6.83;;;4.13;;
15202;SDS011;7702;51.046;5.184;2023-08-17T04:23:27;4.57;;;3.10;;
15202;SDS011;7702;51.046;5.184;2023-08-17T04:25:53;4.50;;;3.17;;
15202;SDS011;7702;51.046;5.184;2023-08-17T04:28:20;3.67;;;2.90;;
15202;SDS011;7702;51.046;5.184;2023-08-17T04:30:45;5.97;;;3.10;;
15202;SDS011;7702;51.046;5.184;2023-08-17T04:33:12;4.90;;;3.10;;
15202;SDS011;7702;51.046;5.184;2023-08-17T04:35:38;4.27;;;3.00;;
15202;SDS011;7702;51.046;5.184;2023-08-17T04:38:04;3.53;;;2.97;;
15202;SDS011;7702;51.046;5.184;2023-08-17T04:40:30;3.40;;;3.10;;
15202;SDS011;7702;51.046;5.184;2023-08-17T04:42:57;5.77;;;3.30;;
15202;SDS011;7702;51.046;5.184;2023-08-17T04:45:22;6.60;;;3.03;;
15202;SDS011;7702;51.046;5.184;2023-08-17T04:47:48;3.37;;;3.07;;
15202;SDS011;7702;51.046;5.184;2023-08-17T04:50:15;4.30;;;3.17;;
15202;SDS011;7702;51.046;5.184;2023-08-17T04:52:44;4.50;;;3.03;;
15202;SDS011;7702;51.046;5.184;2023-08-17T04:55:10;5.10;;;3.03;;
15202;SDS011;7702;51.046;5.184;2023-08-17T04:57:36;6.77;;;3.00;;
15202;SDS011;7702;51.046;5.184;2023-08-17T05:00:02;4.33;;;2.93;;
15202;SDS011;7702;51.046;5.184;2023-08-17T05:02:28;3.30;;;2.90;;
15202;SDS011;7702;51.046;5.184;2023-08-17T05:04:54;7.07;;;3.10;;
15202;SDS011;7702;51.046;5.184;2023-08-17T05:07:19;4.60;;;3.73;;
15202;SDS011;7702;51.046;5.184;2023-08-17T05:09:45;4.00;;;3.30;;
15202;SDS011;7702;51.046;5.184;2023-08-17T05:12:10;3.83;;;3.23;;
15202;SDS011;7702;51.046;5.184;2023-08-17T05:14:36;7.27;;;3.43;;
15202;SDS011;7702;51.046;5.184;2023-08-17T05:17:02;4.77;;;3.33;;
15202;SDS011;7702;51.046;5.184;2023-08-17T05:19:28;4.70;;;4.23;;
15202;SDS011;7702;51.046;5.184;2023-08-17T05:21:53;6.60;;;3.50;;
15202;SDS011;7702;51.046;5.184;2023-08-17T05:24:19;4.23;;;3.43;;
15202;SDS011;7702;51.046;5.184;2023-08-17T05:26:45;4.73;;;3.50;;
15202;SDS011;7702;51.046;5.184;2023-08-17T05:29:11;5.13;;;3.60;;
15202;SDS011;7702;51.046;5.184;2023-08-17T05:31:37;7.27;;;3.60;;
15202;SDS011;7702;51.046;5.184;2023-08-17T05:34:03;6.90;;;3.73;;
15202;SDS011;7702;51.046;5.184;2023-08-17T05:36:28;3.90;;;3.53;;
15202;SDS011;7702;51.046;5.184;2023-08-17T05:38:54;5.33;;;3.13;;
15202;SDS011;7702;51.046;5.184;2023-08-17T05:41:20;3.60;;;3.27;;
15202;SDS011;7702;51.046;5.184;2023-08-17T05:43:45;4.93;;;4.43;;
15202;SDS011;7702;51.046;5.184;2023-08-17T05:46:11;3.90;;;3.40;;
15202;SDS011;7702;51.046;5.184;2023-08-17T05:48:37;3.70;;;3.43;;
15202;SDS011;7702;51.046;5.184;2023-08-17T05:51:02;6.13;;;3.53;;
15202;SDS011;7702;51.046;5.184;2023-08-17T05:53:29;4.07;;;3.10;;
15202;SDS011;7702;51.046;5.184;2023-08-17T05:55:54;3.90;;;3.40;;
15202;SDS011;7702;51.046;5.184;2023-08-17T05:58:20;4.50;;;3.13;;
15202;SDS011;7702;51.046;5.184;2023-08-17T06:00:45;3.93;;;3.30;;
15202;SDS011;7702;51.046;5.184;2023-08-17T06:03:11;4.53;;;3.83;;
15202;SDS011;7702;51.046;5.184;2023-08-17T06:05:37;3.83;;;3.30;;
15202;SDS011;7702;51.046;5.184;2023-08-17T06:08:03;4.77;;;3.07;;
15202;SDS011;7702;51.046;5.184;2023-08-17T06:10:29;4.60;;;3.10;;
15202;SDS011;7702;51.046;5.184;2023-08-17T06:12:56;3.83;;;3.20;;
15202;SDS011;7702;51.046;5.184;2023-08-17T06:15:22;6.67;;;3.80;;
15202;SDS011;7702;51.046;5.184;2023-08-17T06:17:49;4.63;;;3.40;;
15202;SDS011;7702;51.046;5.184;2023-08-17T06:20:15;4.40;;;3.90;;
15202;SDS011;7702;51.046;5.184;2023-08-17T06:22:41;7.07;;;3.40;;
15202;SDS011;7702;51.046;5.184;2023-08-17T06:25:07;4.10;;;3.70;;
15202;SDS011;7702;51.046;5.184;2023-08-17T06:27:34;8.10;;;3.83;;
15202;SDS011;7702;51.046;5.184;2023-08-17T06:30:01;4.80;;;3.53;;
15202;SDS011;7702;51.046;5.184;2023-08-17T06:32:28;4.43;;;3.30;;
15202;SDS011;7702;51.046;5.184;2023-08-17T06:34:54;4.97;;;3.63;;
15202;SDS011;7702;51.046;5.184;2023-08-17T06:37:19;4.40;;;3.30;;
15202;SDS011;7702;51.046;5.184;2023-08-17T06:39:45;6.20;;;4.10;;
15202;SDS011;7702;51.046;5.184;2023-08-17T06:42:11;8.83;;;4.00;;
15202;SDS011;7702;51.046;5.184;2023-08-17T06:44:36;3.57;;;3.17;;
15202;SDS011;7702;51.046;5.184;2023-08-17T06:47:02;6.10;;;3.83;;
15202;SDS011;7702;51.046;5.184;2023-08-17T06:49:28;4.93;;;3.60;;
15202;SDS011;7702;51.046;5.184;2023-08-17T06:51:55;4.40;;;3.53;;
15202;SDS011;7702;51.046;5.184;2023-08-17T06:54:21;4.33;;;3.93;;
15202;SDS011;7702;51.046;5.184;2023-08-17T06:56:46;5.33;;;3.73;;
15202;SDS011;7702;51.046;5.184;2023-08-17T06:59:12;5.43;;;3.80;;
15202;SDS011;7702;51.046;5.184;2023-08-17T07:01:37;4.30;;;3.57;;
15202;SDS011;7702;51.046;5.184;2023-08-17T07:04:03;5.33;;;3.63;;
15202;SDS011;7702;51.046;5.184;2023-08-17T07:06:29;6.33;;;3.90;;
15202;SDS011;7702;51.046;5.184;2023-08-17T07:08:55;6.60;;;3.90;;
15202;SDS011;7702;51.046;5.184;2023-08-17T07:11:21;7.23;;;5.53;;
15202;SDS011;7702;51.046;5.184;2023-08-17T07:13:47;5.80;;;4.73;;
15202;SDS011;7702;51.046;5.184;2023-08-17T07:16:13;7.83;;;5.50;;
15202;SDS011;7702;51.046;5.184;2023-08-17T07:18:39;6.77;;;5.00;;
15202;SDS011;7702;51.046;5.184;2023-08-17T07:21:05;6.93;;;5.27;;
15202;SDS011;7702;51.046;5.184;2023-08-17T07:23:31;8.47;;;5.60;;
15202;SDS011;7702;51.046;5.184;2023-08-17T07:25:57;8.53;;;5.23;;
15202;SDS011;7702;51.046;5.184;2023-08-17T07:28:22;7.00;;;4.73;;
15202;SDS011;7702;51.046;5.184;2023-08-17T07:30:48;6.40;;;5.67;;
15202;SDS011;7702;51.046;5.184;2023-08-17T07:33:14;5.80;;;4.83;;
15202;SDS011;7702;51.046;5.184;2023-08-17T07:35:40;6.93;;;5.50;;
15202;SDS011;7702;51.046;5.184;2023-08-17T07:38:05;11.30;;;5.63;;
15202;SDS011;7702;51.046;5.184;2023-08-17T07:40:31;6.37;;;5.53;;
15202;SDS011;7702;51.046;5.184;2023-08-17T07:42:57;6.50;;;5.90;;
15202;SDS011;7702;51.046;5.184;2023-08-17T07:45:22;7.67;;;6.03;;
15202;SDS011;7702;51.046;5.184;2023-08-17T07:47:48;7.67;;;5.70;;
15202;SDS011;7702;51.046;5.184;2023-08-17T07:50:14;6.53;;;5.83;;
15202;SDS011;7702;51.046;5.184;2023-08-17T07:52:40;8.77;;;7.00;;
15202;SDS011;7702;51.046;5.184;2023-08-17T07:55:06;8.30;;;7.20;;
15202;SDS011;7702;51.046;5.184;2023-08-17T07:57:31;8.40;;;7.40;;
15202;SDS011;7702;51.046;5.184;2023-08-17T07:59:58;8.30;;;7.50;;
15202;SDS011;7702;51.046;5.184;2023-08-17T08:02:23;9.40;;;7.70;;
15202;SDS011;7702;51.046;5.184;2023-08-17T08:04:49;8.77;;;7.87;;
15202;SDS011;7702;51.046;5.184;2023-08-17T08:07:15;8.33;;;7.20;;
15202;SDS011;7702;51.046;5.184;2023-08-17T08:09:40;9.57;;;8.23;;
15202;SDS011;7702;51.046;5.184;2023-08-17T08:12:06;10.87;;;8.13;;
15202;SDS011;7702;51.046;5.184;2023-08-17T08:14:33;10.40;;;9.30;;
15202;SDS011;7702;51.046;5.184;2023-08-17T08:16:59;13.90;;;9.63;;
15202;SDS011;7702;51.046;5.184;2023-08-17T08:19:25;13.53;;;9.33;;
15202;SDS011;7702;51.046;5.184;2023-08-17T08:21:50;11.73;;;10.37;;
15202;SDS011;7702;51.046;5.184;2023-08-17T08:24:16;13.03;;;10.27;;
15202;SDS011;7702;51.046;5.184;2023-08-17T08:26:42;12.70;;;10.00;;
15202;SDS011;7702;51.046;5.184;2023-08-17T08:29:08;13.33;;;10.73;;
15202;SDS011;7702;51.046;5.184;2023-08-17T08:31:34;13.60;;;11.93;;
15202;SDS011;7702;51.046;5.184;2023-08-17T08:33:59;12.80;;;10.93;;
15202;SDS011;7702;51.046;5.184;2023-08-17T08:36:25;12.07;;;10.87;;
15202;SDS011;7702;51.046;5.184;2023-08-17T08:38:51;12.07;;;10.87;;
15202;SDS011;7702;51.046;5.184;2023-08-17T08:41:17;11.07;;;9.90;;
15202;SDS011;7702;51.046;5.184;2023-08-17T08:43:44;12.80;;;10.50;;
15202;SDS011;7702;51.046;5.184;2023-08-17T08:46:10;13.83;;;9.80;;
15202;SDS011;7702;51.046;5.184;2023-08-17T08:48:37;11.60;;;9.57;;
15202;SDS011;7702;51.046;5.184;2023-08-17T08:51:05;11.80;;;9.50;;
15202;SDS011;7702;51.046;5.184;2023-08-17T08:53:37;9.80;;;8.80;;
15202;SDS011;7702;51.046;5.184;2023-08-17T08:56:04;9.10;;;8.20;;
15202;SDS011;7702;51.046;5.184;2023-08-17T08:58:32;10.10;;;8.73;;
15202;SDS011;7702;51.046;5.184;2023-08-17T09:00:59;9.17;;;8.27;;
15202;SDS011;7702;51.046;5.184;2023-08-17T09:03:27;10.00;;;9.10;;
15202;SDS011;7702;51.046;5.184;2023-08-17T09:05:53;10.73;;;8.60;;
15202;SDS011;7702;51.046;5.184;2023-08-17T09:08:22;10.50;;;9.40;;
15202;SDS011;7702;51.046;5.184;2023-08-17T09:10:51;9.77;;;8.87;;
15202;SDS011;7702;51.046;5.184;2023-08-17T09:13:17;11.47;;;10.37;;
15202;SDS011;7702;51.046;5.184;2023-08-17T09:15:43;11.67;;;10.57;;
15202;SDS011;7702;51.046;5.184;2023-08-17T09:18:08;12.80;;;11.50;;
15202;SDS011;7702;51.046;5.184;2023-08-17T09:20:41;11.77;;;10.73;;
15202;SDS011;7702;51.046;5.184;2023-08-17T09:23:13;12.10;;;10.77;;
15202;SDS011;7702;51.046;5.184;2023-08-17T09:25:47;11.53;;;10.20;;
15202;SDS011;7702;51.046;5.184;2023-08-17T09:28:16;12.60;;;11.37;;
15202;SDS011;7702;51.046;5.184;2023-08-17T09:33:25;9.93;;;9.03;;
15202;SDS011;7702;51.046;5.184;2023-08-17T09:35:53;11.07;;;9.97;;
15202;SDS011;7702;51.046;5.184;2023-08-17T09:38:20;11.00;;;10.10;;
15202;SDS011;7702;51.046;5.184;2023-08-17T09:40:46;11.83;;;9.73;;
15202;SDS011;7702;51.046;5.184;2023-08-17T09:43:13;13.80;;;9.60;;
15202;SDS011;7702;51.046;5.184;2023-08-17T09:45:40;11.20;;;9.43;;
15202;SDS011;7702;51.046;5.184;2023-08-17T09:48:08;17.63;;;11.20;;
15202;SDS011;7702;51.046;5.184;2023-08-17T09:50:35;15.97;;;10.07;;
15202;SDS011;7702;51.046;5.184;2023-08-17T09:53:02;13.47;;;10.70;;
15202;SDS011;7702;51.046;5.184;2023-08-17T09:55:30;11.77;;;9.80;;
15202;SDS011;7702;51.046;5.184;2023-08-17T09:57:59;11.83;;;10.17;;
15202;SDS011;7702;51.046;5.184;2023-08-17T10:00:25;13.10;;;11.37;;
15202;SDS011;7702;51.046;5.184;2023-08-17T10:02:53;11.80;;;10.70;;
15202;SDS011;7702;51.046;5.184;2023-08-17T10:05:20;12.37;;;11.10;;
15202;SDS011;7702;51.046;5.184;2023-08-17T10:07:47;13.67;;;11.27;;
15202;SDS011;7702;51.046;5.184;2023-08-17T10:10:22;13.33;;;10.87;;
15202;SDS011;7702;51.046;5.184;2023-08-17T10:12:59;12.90;;;9.80;;
15202;SDS011;7702;51.046;5.184;2023-08-17T10:18:45;10.37;;;9.30;;
15202;SDS011;7702;51.046;5.184;2023-08-17T10:21:37;14.80;;;9.87;;
15202;SDS011;7702;51.046;5.184;2023-08-17T10:24:09;11.30;;;10.17;;
15202;SDS011;7702;51.046;5.184;2023-08-17T10:26:36;10.23;;;9.17;;
15202;SDS011;7702;51.046;5.184;2023-08-17T10:29:02;9.63;;;8.73;;
15202;SDS011;7702;51.046;5.184;2023-08-17T10:31:29;9.67;;;8.40;;
15202;SDS011;7702;51.046;5.184;2023-08-17T10:33:55;9.83;;;8.77;;
15202;SDS011;7702;51.046;5.184;2023-08-17T10:36:22;10.90;;;9.10;;
15202;SDS011;7702;51.046;5.184;2023-08-17T10:39:17;10.27;;;8.10;;
15202;SDS011;7702;51.046;5.184;2023-08-17T10:41:48;10.53;;;9.03;;
15202;SDS011;7702;51.046;5.184;2023-08-17T10:44:15;9.53;;;8.37;;
15202;SDS011;7702;51.046;5.184;2023-08-17T10:46:42;10.50;;;8.87;;
15202;SDS011;7702;51.046;5.184;2023-08-17T10:49:24;11.00;;;9.33;;
15202;SDS011;7702;51.046;5.184;2023-08-17T10:52:01;11.47;;;9.17;;
15202;SDS011;7702;51.046;5.184;2023-08-17T10:54:39;13.20;;;9.83;;
15202;SDS011;7702;51.046;5.184;2023-08-17T11:02:49;14.57;;;10.40;;
15202;SDS011;7702;51.046;5.184;2023-08-17T11:11:02;12.13;;;10.67;;
15202;SDS011;7702;51.046;5.184;2023-08-17T11:13:36;18.07;;;12.00;;
15202;SDS011;7702;51.046;5.184;2023-08-17T11:16:06;12.43;;;11.13;;
15202;SDS011;7702;51.046;5.184;2023-08-17T11:18:33;14.07;;;11.70;;
15202;SDS011;7702;51.046;5.184;2023-08-17T11:20:59;15.47;;;11.43;;
15202;SDS011;7702;51.046;5.184;2023-08-17T11:23:28;13.27;;;11.87;;
15202;SDS011;7702;51.046;5.184;2023-08-17T11:25:55;12.57;;;11.27;;
15202;SDS011;7702;51.046;5.184;2023-08-17T11:28:21;11.93;;;10.73;;
15202;SDS011;7702;51.046;5.184;2023-08-17T11:30:57;13.60;;;10.50;;
15202;SDS011;7702;51.046;5.184;2023-08-17T11:33:27;12.90;;;10.90;;
15202;SDS011;7702;51.046;5.184;2023-08-17T11:36:03;15.30;;;11.60;;
15202;SDS011;7702;51.046;5.184;2023-08-17T11:38:35;12.53;;;10.90;;
15202;SDS011;7702;51.046;5.184;2023-08-17T11:41:02;12.00;;;10.80;;
15202;SDS011;7702;51.046;5.184;2023-08-17T11:43:29;13.63;;;11.43;;
15202;SDS011;7702;51.046;5.184;2023-08-17T11:45:56;11.57;;;10.33;;
15202;SDS011;7702;51.046;5.184;2023-08-17T11:48:23;12.47;;;11.00;;
15202;SDS011;7702;51.046;5.184;2023-08-17T11:50:49;13.00;;;11.30;;
15202;SDS011;7702;51.046;5.184;2023-08-17T11:53:16;11.87;;;10.77;;
15202;SDS011;7702;51.046;5.184;2023-08-17T11:55:41;13.57;;;12.23;;
15202;SDS011;7702;51.046;5.184;2023-08-17T11:58:07;12.20;;;10.80;;
15202;SDS011;7702;51.046;5.184;2023-08-17T12:00:40;11.57;;;10.37;;
15202;SDS011;7702;51.046;5.184;2023-08-17T12:03:07;11.83;;;10.50;;
15202;SDS011;7702;51.046;5.184;2023-08-17T12:05:33;12.13;;;10.83;;
15202;SDS011;7702;51.046;5.184;2023-08-17T12:08:00;11.77;;;10.70;;
15202;SDS011;7702;51.046;5.184;2023-08-17T12:10:30;15.20;;;12.00;;
15202;SDS011;7702;51.046;5.184;2023-08-17T12:13:00;13.57;;;12.17;;
15202;SDS011;7702;51.046;5.184;2023-08-17T12:15:32;13.93;;;12.30;;
15202;SDS011;7702;51.046;5.184;2023-08-17T12:17:59;12.73;;;11.00;;
15202;SDS011;7702;51.046;5.184;2023-08-17T12:20:28;14.03;;;12.53;;
15202;SDS011;7702;51.046;5.184;2023-08-17T12:22:56;15.67;;;13.63;;
15202;SDS011;7702;51.046;5.184;2023-08-17T12:25:23;15.00;;;13.13;;
15202;SDS011;7702;51.046;5.184;2023-08-17T12:27:49;16.50;;;13.63;;
15202;SDS011;7702;51.046;5.184;2023-08-17T12:30:28;18.10;;;13.40;;
15202;SDS011;7702;51.046;5.184;2023-08-17T12:32:57;15.00;;;13.40;;
15202;SDS011;7702;51.046;5.184;2023-08-17T12:35:23;16.77;;;14.17;;
15202;SDS011;7702;51.046;5.184;2023-08-17T12:37:50;15.23;;;13.43;;
15202;SDS011;7702;51.046;5.184;2023-08-17T12:40:17;16.20;;;13.70;;
15202;SDS011;7702;51.046;5.184;2023-08-17T12:42:43;16.50;;;14.40;;
15202;SDS011;7702;51.046;5.184;2023-08-17T12:45:09;15.13;;;13.60;;
15202;SDS011;7702;51.046;5.184;2023-08-17T12:47:34;16.57;;;14.00;;
15202;SDS011;7702;51.046;5.184;2023-08-17T12:50:00;14.47;;;13.10;;
15202;SDS011;7702;51.046;5.184;2023-08-17T12:52:27;17.03;;;13.83;;
15202;SDS011;7702;51.046;5.184;2023-08-17T12:54:53;14.47;;;12.00;;
15202;SDS011;7702;51.046;5.184;2023-08-17T12:57:18;15.77;;;14.17;;
15202;SDS011;7702;51.046;5.184;2023-08-17T12:59:44;14.90;;;12.87;;
15202;SDS011;7702;51.046;5.184;2023-08-17T13:02:10;14.43;;;13.03;;
15202;SDS011;7702;51.046;5.184;2023-08-17T13:04:36;13.97;;;12.57;;
15202;SDS011;7702;51.046;5.184;2023-08-17T13:07:02;14.20;;;12.73;;
15202;SDS011;7702;51.046;5.184;2023-08-17T13:09:27;13.80;;;12.40;;
15202;SDS011;7702;51.046;5.184;2023-08-17T13:11:53;14.23;;;12.83;;
15202;SDS011;7702;51.046;5.184;2023-08-17T13:14:19;14.03;;;11.77;;
15202;SDS011;7702;51.046;5.184;2023-08-17T13:16:45;13.40;;;12.07;;
15202;SDS011;7702;51.046;5.184;2023-08-17T13:19:10;13.53;;;11.07;;
15202;SDS011;7702;51.046;5.184;2023-08-17T13:21:36;14.53;;;10.50;;
15202;SDS011;7702;51.046;5.184;2023-08-17T13:24:02;14.73;;;11.83;;
15202;SDS011;7702;51.046;5.184;2023-08-17T13:26:28;12.50;;;10.90;;
15202;SDS011;7702;51.046;5.184;2023-08-17T13:28:55;12.17;;;10.97;;
15202;SDS011;7702;51.046;5.184;2023-08-17T13:31:20;11.73;;;10.53;;
15202;SDS011;7702;51.046;5.184;2023-08-17T13:33:46;12.17;;;10.50;;
15202;SDS011;7702;51.046;5.184;2023-08-17T13:36:12;12.03;;;10.83;;
15202;SDS011;7702;51.046;5.184;2023-08-17T13:38:38;12.77;;;11.53;;
15202;SDS011;7702;51.046;5.184;2023-08-17T13:41:03;13.47;;;11.17;;
15202;SDS011;7702;51.046;5.184;2023-08-17T13:43:29;12.80;;;10.90;;
15202;SDS011;7702;51.046;5.184;2023-08-17T13:45:55;14.50;;;12.00;;
15202;SDS011;7702;51.046;5.184;2023-08-17T13:48:21;12.63;;;11.33;;
15202;SDS011;7702;51.046;5.184;2023-08-17T13:50:47;12.60;;;11.27;;
15202;SDS011;7702;51.046;5.184;2023-08-17T13:53:13;12.60;;;11.40;;
15202;SDS011;7702;51.046;5.184;2023-08-17T13:55:39;12.63;;;11.37;;
15202;SDS011;7702;51.046;5.184;2023-08-17T13:58:05;13.33;;;12.03;;
15202;SDS011;7702;51.046;5.184;2023-08-17T14:00:30;12.83;;;10.17;;
15202;SDS011;7702;51.046;5.184;2023-08-17T14:02:56;13.13;;;11.67;;
15202;SDS011;7702;51.046;5.184;2023-08-17T14:05:22;12.33;;;11.00;;
15202;SDS011;7702;51.046;5.184;2023-08-17T14:07:48;13.17;;;11.60;;
15202;SDS011;7702;51.046;5.184;2023-08-17T14:10:14;12.13;;;10.20;;
15202;SDS011;7702;51.046;5.184;2023-08-17T14:12:39;12.50;;;11.17;;
15202;SDS011;7702;51.046;5.184;2023-08-17T14:15:05;12.70;;;11.20;;
15202;SDS011;7702;51.046;5.184;2023-08-17T14:17:32;11.43;;;10.23;;
15202;SDS011;7702;51.046;5.184;2023-08-17T14:19:58;12.87;;;10.93;;
15202;SDS011;7702;51.046;5.184;2023-08-17T14:22:23;11.60;;;10.40;;
15202;SDS011;7702;51.046;5.184;2023-08-17T14:24:49;15.43;;;12.20;;
15202;SDS011;7702;51.046;5.184;2023-08-17T14:27:15;14.03;;;12.10;;
15202;SDS011;7702;51.046;5.184;2023-08-17T14:29:41;12.93;;;11.60;;
15202;SDS011;7702;51.046;5.184;2023-08-17T14:32:06;13.30;;;11.87;;
15202;SDS011;7702;51.046;5.184;2023-08-17T14:34:32;14.40;;;12.77;;
15202;SDS011;7702;51.046;5.184;2023-08-17T14:36:58;14.77;;;12.37;;
15202;SDS011;7702;51.046;5.184;2023-08-17T14:39:24;13.70;;;12.33;;
15202;SDS011;7702;51.046;5.184;2023-08-17T14:41:50;14.33;;;12.53;;
15202;SDS011;7702;51.046;5.184;2023-08-17T14:44:15;14.97;;;13.37;;
15202;SDS011;7702;51.046;5.184;2023-08-17T14:46:42;14.70;;;13.20;;
15202;SDS011;7702;51.046;5.184;2023-08-17T14:49:08;14.37;;;13.03;;
15202;SDS011;7702;51.046;5.184;2023-08-17T14:51:37;15.13;;;13.63;;
15202;SDS011;7702;51.046;5.184;2023-08-17T14:54:04;15.40;;;13.80;;
15202;SDS011;7702;51.046;5.184;2023-08-17T14:56:30;14.67;;;13.17;;
15202;SDS011;7702;51.046;5.184;2023-08-17T14:58:56;15.80;;;14.10;;
15202;SDS011;7702;51.046;5.184;2023-08-17T15:01:22;17.40;;;13.43;;
15202;SDS011;7702;51.046;5.184;2023-08-17T15:03:47;16.10;;;14.40;;
15202;SDS011;7702;51.046;5.184;2023-08-17T15:06:13;19.13;;;14.53;;
15202;SDS011;7702;51.046;5.184;2023-08-17T15:08:39;15.57;;;13.57;;
15202;SDS011;7702;51.046;5.184;2023-08-17T15:11:05;16.30;;;14.53;;
15202;SDS011;7702;51.046;5.184;2023-08-17T15:13:34;15.00;;;13.40;;